Adaville, Iowa
Current Conditions -  °F | °C
As of 6:55 PM on Tuesday 21 Oct 2014 (Local Time) from KLRJ Reporting Station
Clear Clear  
Wind Chill: 18°   Ceiling: Unl
Heat Index: 18°   Visibility: 10mi
Dew Point:   Wind: 10mph
Humidity: 45%   Direction: 130°SE
Pressure: 30.01"   Gusts: NA
Location:  42.7082°N, 96.485°W
Report Text: KLRJ 212355Z AUTO 13009KT 10SM CLR 18/06 A3001 RMK AO2
Loading
Personal Weather Stations






























Interactive Weather Map
Tropical Storm Tracking
New forecast layout! Learn more

10-Day Weather Forecast

Advertisements
Track Severe Weather on mobile